Estación de El Carmen

Ultimos registro cada 15 minutos 38
Estación Fecha / Hora Temperatura Humedad Lluvia Velocidad Dirección Radiación Presion
38 El Carmen 02-09-2026 09:15 11,9 85,3 0 1 138 85,6 977,6
37 El Carmen 02-09-2026 09:00 12 84,7 0 0,5 156 59,4 977,5
36 El Carmen 02-09-2026 08:45 11,7 86,6 0 0 154 78,1 977,3
35 El Carmen 02-09-2026 08:30 11,1 88,1 0 0 140 39,4 977
34 El Carmen 02-09-2026 08:15 10,9 88,4 0 0 132 28,1 976,7
33 El Carmen 02-09-2026 08:00 10,8 89,2 0 0 129 15,6 976,9
32 El Carmen 02-09-2026 07:45 10,8 88,8 0 0,5 128 11,9 977
31 El Carmen 02-09-2026 07:30 11 87,6 0 1 139 4,4 977
30 El Carmen 02-09-2026 07:15 11,2 86,6 0 1 142 1,9 976,6
29 El Carmen 02-09-2026 07:00 11,2 86,1 0 0 138 0,6 976,3
28 El Carmen 02-09-2026 06:45 11,2 87 0 0,5 133 0,6 976,2
27 El Carmen 02-09-2026 06:30 10,7 89,5 0 0 122 0,6 975,9
26 El Carmen 02-09-2026 06:15 10,7 89,5 0 0,5 125 0,6 975,5
25 El Carmen 02-09-2026 06:00 10,5 89,5 0 0 133 0,6 975,4
24 El Carmen 02-09-2026 05:45 10,7 89,2 0 1 133 0,6 975,4
23 El Carmen 02-09-2026 05:30 11,4 88,1 0 1 125 0,6 975,3
22 El Carmen 02-09-2026 05:15 11,2 88,6 0 1 128 0,6 975,2
21 El Carmen 02-09-2026 05:00 11,4 88,6 0 0 133 0,6 975,1
20 El Carmen 02-09-2026 04:45 11,5 88,5 0 0 157 0,6 975,3
19 El Carmen 02-09-2026 04:30 12 87,8 0 0,5 159 0,6 975,3
18 El Carmen 02-09-2026 04:15 11,8 88,6 0 0 125 0,6 975,1
17 El Carmen 02-09-2026 04:00 11,3 89,6 0 0 111 0,6 974,9
16 El Carmen 02-09-2026 03:45 12 87,4 0 0 110 0,6 975,1
15 El Carmen 02-09-2026 03:30 12,2 87,3 0 0 111 0,6 975,5
14 El Carmen 02-09-2026 03:15 12,4 86,4 0 0 112 0,6 975,8
13 El Carmen 02-09-2026 03:00 12,5 85,9 0 0 115 0,6 976,1
12 El Carmen 02-09-2026 02:45 12,8 84,5 0 1 119 0,6 976
11 El Carmen 02-09-2026 02:30 12,9 83,5 0 0,5 143 0,6 976
10 El Carmen 02-09-2026 02:15 13,3 82,8 0 1 138 0,6 976
9 El Carmen 02-09-2026 02:00 13,2 84,2 0 1 121 0,6 976,1
8 El Carmen 02-09-2026 01:45 13,6 82,1 0 1,5 128 0,6 975,7
7 El Carmen 02-09-2026 01:30 14 81,1 0 2 138 0,6 976,1
6 El Carmen 02-09-2026 01:15 14 82 0 1,5 128 0,6 976,2
5 El Carmen 02-09-2026 01:00 14,1 82,1 0 1 117 0,6 976,2
4 El Carmen 02-09-2026 00:45 14 82,9 0 0 150 0,6 976,3
3 El Carmen 02-09-2026 00:30 13,8 83,4 0 0 154 0,6 976,3
2 El Carmen 02-09-2026 00:15 14,4 80,6 0 0 154 0,6 976,1
1 El Carmen 02-09-2026 00:00 14,6 80,5 0 0 154 0,6 976,1